createdAt,value
2018-09-25T00:00:32.561Z,7.85
2018-09-25T00:01:33.945Z,7.84
2018-09-25T00:02:35.313Z,7.84
2018-09-25T00:03:36.693Z,7.73
2018-09-25T00:04:38.089Z,7.67
2018-09-25T00:05:39.462Z,7.76
2018-09-25T00:06:40.821Z,7.73
2018-09-25T00:07:42.211Z,7.73
2018-09-25T00:08:43.588Z,7.79
2018-09-25T00:09:44.966Z,7.77
2018-09-25T00:10:46.342Z,7.79
2018-09-25T00:11:47.717Z,7.69
2018-09-25T00:12:49.098Z,7.63
2018-09-25T00:13:50.476Z,7.79
2018-09-25T00:14:51.852Z,7.67
2018-09-25T00:15:53.229Z,7.73
2018-09-25T00:16:54.611Z,7.76
2018-09-25T00:17:55.994Z,7.73
2018-09-25T00:18:57.362Z,7.74
2018-09-25T00:19:58.755Z,7.67
2018-09-25T00:21:00.108Z,7.67
2018-09-25T00:22:01.487Z,7.67
2018-09-25T00:23:02.869Z,7.60
2018-09-25T00:24:04.243Z,7.63
2018-09-25T00:25:05.633Z,7.60
2018-09-25T00:26:07.008Z,7.58
2018-09-25T00:27:08.384Z,7.63
2018-09-25T00:28:09.771Z,7.63
2018-09-25T00:29:11.153Z,7.45
2018-09-25T00:30:12.511Z,7.51
2018-09-25T00:31:13.891Z,7.48
2018-09-25T00:32:15.264Z,7.51
2018-09-25T00:33:16.639Z,7.50
2018-09-25T00:34:18.013Z,7.42
2018-09-25T00:35:19.403Z,7.45
2018-09-25T00:36:20.772Z,7.39
2018-09-25T00:37:22.148Z,7.42
2018-09-25T00:38:23.530Z,7.47
2018-09-25T00:39:24.906Z,7.33
2018-09-25T00:40:26.287Z,7.41
2018-09-25T00:41:27.652Z,7.34
2018-09-25T00:42:29.030Z,7.36
2018-09-25T00:43:30.416Z,7.32
2018-09-25T00:44:31.799Z,7.36
2018-09-25T00:45:33.169Z,7.33
2018-09-25T00:46:34.548Z,7.37
2018-09-25T00:47:35.939Z,7.33
2018-09-25T00:48:37.312Z,7.34
2018-09-25T00:49:38.687Z,7.36
2018-09-25T00:50:40.059Z,7.45
2018-09-25T00:51:41.438Z,7.42
2018-09-25T00:52:42.813Z,7.44
2018-09-25T00:53:44.191Z,7.42
2018-09-25T00:54:45.572Z,7.48
2018-09-25T00:55:46.945Z,7.50
2018-09-25T00:56:48.323Z,7.48
2018-09-25T00:57:49.712Z,7.62
2018-09-25T00:58:51.083Z,7.67
2018-09-25T00:59:52.459Z,7.60
2018-09-25T01:00:53.841Z,7.60
2018-09-25T01:01:55.214Z,7.70
2018-09-25T01:02:56.583Z,7.62
2018-09-25T01:03:57.967Z,7.62
2018-09-25T01:04:59.331Z,7.58
2018-09-25T01:06:00.709Z,7.60
2018-09-25T01:07:02.085Z,7.54
2018-09-25T01:08:03.455Z,7.62
2018-09-25T01:09:04.836Z,7.52
2018-09-25T01:10:06.205Z,7.55
2018-09-25T01:11:07.596Z,7.57
2018-09-25T01:12:08.974Z,7.55
2018-09-25T01:13:10.349Z,7.66
2018-09-25T01:14:11.726Z,7.62
2018-09-25T01:15:13.108Z,7.62
2018-09-25T01:16:14.486Z,7.63
2018-09-25T01:17:15.876Z,7.57
2018-09-25T01:18:17.266Z,7.62
2018-09-25T01:19:18.675Z,7.69
2018-09-25T01:20:19.958Z,7.62
2018-09-25T01:21:21.334Z,7.66
2018-09-25T01:22:22.706Z,7.55
2018-09-25T01:23:24.093Z,7.57
2018-09-25T01:24:25.466Z,7.52
2018-09-25T01:25:26.855Z,7.63
2018-09-25T01:26:28.234Z,7.63
2018-09-25T01:27:29.605Z,7.52
2018-09-25T01:28:30.984Z,7.48
2018-09-25T01:29:32.362Z,7.54
2018-09-25T01:30:33.739Z,7.50
2018-09-25T01:31:35.119Z,7.51
2018-09-25T01:32:36.505Z,7.42
2018-09-25T01:33:37.869Z,7.48
2018-09-25T01:34:39.249Z,7.52
2018-09-25T01:35:41.379Z,7.45
2018-09-25T01:36:42.743Z,7.47
2018-09-25T01:37:44.121Z,7.47
2018-09-25T01:38:45.485Z,7.44
2018-09-25T01:39:46.872Z,7.51
2018-09-25T01:40:48.251Z,7.42
2018-09-25T01:41:49.621Z,7.42
2018-09-25T01:42:51.010Z,7.41
2018-09-25T01:43:52.404Z,7.39
2018-09-25T01:44:53.768Z,7.34
2018-09-25T01:45:55.147Z,7.32
2018-09-25T01:46:56.525Z,7.42
2018-09-25T01:47:57.901Z,7.36
2018-09-25T01:48:59.285Z,7.34
2018-09-25T01:50:00.656Z,7.44
2018-09-25T01:51:02.034Z,7.45
2018-09-25T01:52:04.333Z,7.33
2018-09-25T01:53:05.714Z,7.36
2018-09-25T01:54:07.096Z,7.32
2018-09-25T01:55:08.478Z,7.36
2018-09-25T01:56:09.851Z,7.30
2018-09-25T01:57:11.228Z,7.30
2018-09-25T01:58:12.595Z,7.27
2018-09-25T01:59:13.991Z,7.27
2018-09-25T02:00:15.361Z,7.23
2018-09-25T02:01:16.738Z,7.27
2018-09-25T02:02:18.120Z,7.16
2018-09-25T02:03:19.492Z,7.24
2018-09-25T02:04:20.867Z,7.21
2018-09-25T02:05:22.243Z,7.16
2018-09-25T02:06:23.620Z,7.11
2018-09-25T02:07:24.993Z,7.21
2018-09-25T02:08:26.372Z,7.18
2018-09-25T02:09:27.748Z,7.18
2018-09-25T02:10:29.124Z,7.19
2018-09-25T02:11:30.496Z,7.24
2018-09-25T02:12:31.868Z,7.32
2018-09-25T02:13:33.244Z,7.26
2018-09-25T02:14:34.618Z,7.23
2018-09-25T02:15:35.994Z,7.21
2018-09-25T02:16:37.368Z,7.11
2018-09-25T02:17:38.748Z,7.18
2018-09-25T02:18:40.126Z,7.18
2018-09-25T02:19:41.513Z,7.14
2018-09-25T02:20:42.883Z,7.18
2018-09-25T02:21:44.265Z,7.15
2018-09-25T02:22:45.638Z,7.11
2018-09-25T02:23:47.020Z,7.07
2018-09-25T02:24:48.395Z,7.07
2018-09-25T02:25:49.767Z,7.16
2018-09-25T02:26:51.147Z,7.15
2018-09-25T02:27:52.513Z,7.16
2018-09-25T02:28:53.899Z,7.15
2018-09-25T02:29:55.273Z,7.16
2018-09-25T02:30:56.664Z,7.15
2018-09-25T02:31:58.032Z,7.19
2018-09-25T02:32:59.423Z,7.16
2018-09-25T02:34:00.814Z,7.14
2018-09-25T02:35:02.213Z,7.26
2018-09-25T02:36:03.562Z,7.19
2018-09-25T02:37:04.949Z,7.19
2018-09-25T02:38:06.324Z,7.21
2018-09-25T02:39:07.716Z,7.26
2018-09-25T02:40:09.094Z,7.16
2018-09-25T02:41:10.478Z,7.27
2018-09-25T02:42:11.854Z,7.23
2018-09-25T02:43:13.228Z,7.26
2018-09-25T02:44:14.608Z,7.15
2018-09-25T02:45:15.990Z,7.27
2018-09-25T02:46:17.371Z,7.30
2018-09-25T02:47:18.736Z,7.36
2018-09-25T02:48:20.112Z,7.37
2018-09-25T02:49:21.488Z,7.33
2018-09-25T02:50:22.868Z,7.26
2018-09-25T02:51:24.242Z,7.32
2018-09-25T02:52:25.630Z,7.37
2018-09-25T02:53:27.849Z,7.32
2018-09-25T02:54:29.224Z,7.26
2018-09-25T02:55:30.593Z,7.23
2018-09-25T02:56:31.981Z,7.26
2018-09-25T02:57:33.367Z,7.32
2018-09-25T02:58:34.745Z,7.33
2018-09-25T02:59:36.130Z,7.37
2018-09-25T03:00:37.515Z,7.37
2018-09-25T03:01:39.757Z,7.36
2018-09-25T03:02:41.139Z,7.30
2018-09-25T03:03:42.536Z,7.34
2018-09-25T03:04:43.917Z,7.29
2018-09-25T03:05:45.285Z,7.26
2018-09-25T03:06:46.665Z,7.27
2018-09-25T03:07:48.038Z,7.26
2018-09-25T03:08:49.416Z,7.27
2018-09-25T03:09:50.796Z,7.21
2018-09-25T03:10:52.172Z,7.26
2018-09-25T03:11:53.544Z,7.27
2018-09-25T03:12:54.919Z,7.21
2018-09-25T03:13:56.292Z,7.19
2018-09-25T03:14:57.670Z,7.24
2018-09-25T03:15:59.056Z,7.18
2018-09-25T03:17:00.432Z,7.21
2018-09-25T03:18:01.811Z,7.16
2018-09-25T03:19:03.181Z,7.19
2018-09-25T03:20:04.553Z,7.15
2018-09-25T03:21:05.924Z,7.23
2018-09-25T03:22:07.325Z,7.19
2018-09-25T03:23:08.681Z,7.19
2018-09-25T03:24:10.070Z,7.18
2018-09-25T03:25:11.449Z,7.23
2018-09-25T03:26:12.820Z,7.19
2018-09-25T03:27:14.202Z,7.14
2018-09-25T03:28:15.572Z,7.16
2018-09-25T03:29:16.949Z,7.18
2018-09-25T03:30:18.333Z,7.14
2018-09-25T03:31:19.712Z,7.18
2018-09-25T03:32:21.080Z,7.21
2018-09-25T03:33:22.453Z,7.14
2018-09-25T03:34:23.830Z,7.19
2018-09-25T03:35:25.199Z,7.15
2018-09-25T03:36:26.580Z,7.16
2018-09-25T03:37:27.962Z,7.21
2018-09-25T03:38:29.332Z,7.15
2018-09-25T03:39:30.730Z,7.21
2018-09-25T03:40:32.092Z,7.23
2018-09-25T03:41:33.472Z,7.21
2018-09-25T03:42:34.844Z,7.21
2018-09-25T03:43:36.239Z,7.16
2018-09-25T03:44:37.618Z,7.18
2018-09-25T03:45:38.989Z,7.19
2018-09-25T03:46:40.361Z,7.18
2018-09-25T03:47:41.741Z,7.16
2018-09-25T03:48:43.115Z,7.16
2018-09-25T03:49:44.485Z,7.15
2018-09-25T03:50:45.859Z,7.15
2018-09-25T03:51:47.238Z,7.19
2018-09-25T03:52:48.615Z,7.19
2018-09-25T03:53:49.995Z,7.15
2018-09-25T03:54:51.372Z,7.15
2018-09-25T03:55:52.747Z,7.18
2018-09-25T03:56:54.121Z,7.16
2018-09-25T03:57:55.504Z,7.19
2018-09-25T03:58:56.886Z,7.16
2018-09-25T03:59:58.256Z,7.15
2018-09-25T04:00:59.635Z,7.09
2018-09-25T04:02:01.014Z,7.14
2018-09-25T04:03:02.395Z,7.04
2018-09-25T04:04:03.775Z,7.08
2018-09-25T04:05:05.154Z,7.11
2018-09-25T04:06:06.568Z,7.01
2018-09-25T04:07:07.903Z,7.01
2018-09-25T04:08:09.282Z,7.04
2018-09-25T04:09:10.659Z,7.04
2018-09-25T04:10:12.043Z,7.01
2018-09-25T04:11:13.409Z,7.07
2018-09-25T04:12:14.785Z,7.05
2018-09-25T04:13:16.167Z,7.04
2018-09-25T04:14:17.546Z,6.99
2018-09-25T04:15:18.905Z,6.99
2018-09-25T04:16:20.284Z,7.01
2018-09-25T04:17:21.661Z,6.99
2018-09-25T04:18:23.033Z,7.00
2018-09-25T04:19:24.410Z,7.01
2018-09-25T04:20:25.775Z,7.00
2018-09-25T04:21:27.161Z,7.04
2018-09-25T04:22:28.545Z,6.93
2018-09-25T04:23:29.912Z,6.97
2018-09-25T04:24:31.298Z,6.99
2018-09-25T04:25:32.665Z,7.01
2018-09-25T04:26:34.045Z,6.99
2018-09-25T04:27:35.424Z,7.15
2018-09-25T04:28:36.799Z,6.99
2018-09-25T04:29:38.177Z,7.01
2018-09-25T04:30:39.557Z,6.99
2018-09-25T04:31:40.926Z,7.00
2018-09-25T04:32:42.306Z,6.93
2018-09-25T04:33:43.686Z,6.94
2018-09-25T04:34:45.060Z,6.94
2018-09-25T04:35:46.432Z,6.93
2018-09-25T04:36:47.810Z,6.91
2018-09-25T04:37:49.193Z,6.93
2018-09-25T04:38:50.580Z,6.78
2018-09-25T04:39:51.961Z,6.87
2018-09-25T04:40:53.336Z,6.83
2018-09-25T04:41:54.713Z,6.79
2018-09-25T04:42:56.103Z,6.82
2018-09-25T04:43:57.476Z,6.82
2018-09-25T04:44:58.856Z,6.76
2018-09-25T04:46:00.227Z,6.71
2018-09-25T04:47:01.606Z,6.68
2018-09-25T04:48:02.980Z,6.73
2018-09-25T04:49:04.348Z,6.71
2018-09-25T04:50:05.727Z,6.72
2018-09-25T04:51:07.104Z,6.73
2018-09-25T04:52:09.164Z,6.76
2018-09-25T04:53:10.543Z,6.64
2018-09-25T04:54:11.924Z,6.65
2018-09-25T04:55:13.298Z,6.65
2018-09-25T04:56:14.670Z,6.65
2018-09-25T04:57:16.050Z,6.63
2018-09-25T04:58:17.419Z,6.71
2018-09-25T04:59:18.802Z,6.65
2018-09-25T05:00:20.181Z,6.68
2018-09-25T05:01:21.568Z,6.57
2018-09-25T05:02:22.948Z,6.64
2018-09-25T05:03:24.329Z,6.58
2018-09-25T05:04:25.714Z,6.69
2018-09-25T05:05:27.096Z,6.72
2018-09-25T05:06:28.493Z,6.69
2018-09-25T05:07:29.859Z,6.65
2018-09-25T05:08:31.236Z,6.71
2018-09-25T05:09:32.631Z,6.68
2018-09-25T05:10:34.012Z,6.69
2018-09-25T05:11:35.395Z,6.69
2018-09-25T05:12:36.770Z,6.79
2018-09-25T05:13:38.145Z,6.82
2018-09-25T05:14:39.589Z,6.86
2018-09-25T05:15:40.912Z,6.82
2018-09-25T05:16:42.281Z,6.81
2018-09-25T05:17:43.665Z,6.86
2018-09-25T05:18:45.046Z,6.83
2018-09-25T05:19:46.434Z,6.86
2018-09-25T05:20:47.815Z,6.83
2018-09-25T05:21:49.192Z,6.86
2018-09-25T05:22:50.578Z,6.78
2018-09-25T05:23:51.964Z,6.75
2018-09-25T05:24:53.402Z,6.81
2018-09-25T05:25:54.730Z,6.79
2018-09-25T05:26:56.105Z,6.79
2018-09-25T05:27:57.476Z,6.81
2018-09-25T05:28:58.858Z,6.82
2018-09-25T05:30:00.245Z,6.79
2018-09-25T05:31:01.622Z,6.87
2018-09-25T05:32:02.999Z,6.93
2018-09-25T05:33:04.380Z,6.96
2018-09-25T05:34:05.754Z,6.93
2018-09-25T05:35:07.130Z,6.96
2018-09-25T05:36:08.509Z,6.93
2018-09-25T05:37:09.885Z,6.96
2018-09-25T05:38:11.265Z,6.94
2018-09-25T05:39:12.659Z,6.97
2018-09-25T05:40:14.035Z,6.96
2018-09-25T05:41:15.432Z,6.96
2018-09-25T05:42:16.813Z,6.91
2018-09-25T05:43:18.189Z,6.93
2018-09-25T17:31:26.334Z,11.60
2018-09-25T17:32:27.684Z,11.54
2018-09-25T17:33:29.064Z,11.57
2018-09-25T17:34:30.447Z,11.54
2018-09-25T17:35:31.812Z,11.51
2018-09-25T17:36:33.197Z,11.48
2018-09-25T17:37:35.331Z,11.54
2018-09-25T17:38:36.699Z,11.41
2018-09-25T17:39:38.085Z,11.39
2018-09-25T17:40:39.497Z,11.27
2018-09-25T17:41:40.876Z,11.36
2018-09-25T17:42:42.260Z,11.28
2018-09-25T17:43:43.607Z,11.27
2018-09-25T17:44:45.006Z,11.20
2018-09-25T17:45:47.052Z,11.26
2018-09-25T17:46:48.436Z,11.19
2018-09-25T17:47:49.816Z,11.21
2018-09-25T17:48:51.214Z,11.17
2018-09-25T17:49:52.628Z,11.06
2018-09-25T17:50:53.971Z,11.06
2018-09-25T17:51:55.374Z,10.95
2018-09-25T17:52:57.973Z,11.02
2018-09-25T17:53:59.357Z,11.01
2018-09-25T17:55:00.745Z,10.99
2018-09-25T17:56:02.144Z,10.98
2018-09-25T17:57:04.374Z,10.95
2018-09-25T17:58:04.909Z,10.95
2018-09-25T17:59:06.294Z,10.87
2018-09-25T18:00:07.637Z,10.90
2018-09-25T18:01:10.383Z,10.98
2018-09-25T18:02:11.041Z,10.83
2018-09-25T18:03:12.429Z,10.83
2018-09-25T18:04:13.817Z,10.83
2018-09-25T18:05:15.243Z,10.78
2018-09-25T18:06:16.628Z,10.68
2018-09-25T18:07:19.378Z,10.69
2018-09-25T18:08:19.851Z,10.75
2018-09-25T18:09:21.219Z,10.72
2018-09-25T18:10:22.635Z,10.72
2018-09-25T18:11:24.776Z,10.57
2018-09-25T18:12:26.609Z,10.55
2018-09-25T18:13:28.533Z,10.55
2018-09-25T18:14:29.926Z,10.52
2018-09-25T18:15:31.309Z,10.43
2018-09-25T18:16:32.709Z,10.46
2018-09-25T18:17:34.112Z,10.28
2018-09-25T18:18:35.501Z,10.31
2018-09-25T18:19:36.869Z,10.32
2018-09-25T18:20:38.223Z,10.26
2018-09-25T18:21:39.689Z,10.29
2018-09-25T18:22:41.003Z,10.28
2018-09-25T18:23:43.434Z,10.26
2018-09-25T18:24:44.807Z,10.26
2018-09-25T18:25:46.210Z,10.26
2018-09-25T18:26:47.655Z,10.25
2018-09-25T18:27:49.111Z,10.25
2018-09-25T18:28:50.480Z,10.16
2018-09-25T18:29:52.840Z,10.17
2018-09-25T18:30:54.241Z,10.11
2018-09-25T18:31:55.657Z,10.14
2018-09-25T18:32:57.015Z,10.07
2018-09-25T18:33:59.283Z,10.10
2018-09-25T18:35:00.685Z,10.17
2018-09-25T18:36:02.883Z,10.10
2018-09-25T18:37:05.114Z,10.06
2018-09-25T18:38:09.525Z,10.07
2018-09-25T18:39:10.825Z,9.96
2018-09-25T18:40:13.888Z,9.98
2018-09-25T18:41:14.625Z,9.91
2018-09-25T18:42:16.061Z,9.99
2018-09-25T18:43:18.394Z,9.91
2018-09-25T18:44:18.855Z,9.91
2018-09-25T18:45:22.288Z,9.83
2018-09-25T18:46:23.724Z,9.81
2018-09-25T18:47:25.890Z,9.86
2018-09-25T18:48:27.309Z,9.77
2018-09-25T18:49:28.738Z,9.65
2018-09-25T18:50:31.818Z,9.60
2018-09-25T18:51:33.186Z,9.63
2018-09-25T18:52:34.617Z,9.63
2018-09-25T18:53:36.992Z,9.60
2018-09-25T18:54:38.467Z,9.53
2018-09-25T18:55:40.397Z,9.52
2018-09-25T18:56:41.218Z,9.42
2018-09-25T18:57:43.231Z,9.38
2018-09-25T18:58:46.398Z,9.42
2018-09-25T18:59:48.107Z,9.35
2018-09-25T19:00:50.153Z,9.27
2018-09-25T19:01:52.543Z,9.35
2018-09-25T19:02:54.074Z,9.30
2018-09-25T19:03:56.883Z,9.23
2018-09-25T19:04:59.164Z,9.27
2018-09-25T19:06:02.009Z,9.27
2018-09-25T19:07:03.437Z,9.26
2018-09-25T19:08:05.550Z,9.24
2018-09-25T19:09:06.965Z,9.19
2018-09-25T19:10:09.944Z,9.13
2018-09-25T19:11:12.112Z,9.16
2018-09-25T19:12:13.577Z,9.13
2018-09-25T19:13:15.584Z,9.16
2018-09-25T19:14:16.993Z,9.03
2018-09-25T19:15:19.564Z,8.97
2018-09-25T19:16:21.872Z,9.00
2018-09-25T19:17:23.280Z,9.00
2018-09-25T19:18:25.621Z,9.04
2018-09-25T19:19:27.732Z,9.01
2018-09-25T19:20:30.571Z,9.13
2018-09-25T19:21:32.019Z,9.01
2018-09-25T19:22:33.872Z,8.97
2018-09-25T19:23:36.194Z,8.82
2018-09-25T19:24:37.619Z,8.93
2018-09-25T19:25:39.946Z,8.88
2018-09-25T19:26:41.352Z,8.85
2018-09-25T19:27:43.779Z,8.85
2018-09-25T19:28:45.950Z,8.80
2018-09-25T19:29:48.102Z,8.80
2018-09-25T19:30:50.109Z,8.83
2018-09-25T19:31:52.902Z,8.76
2018-09-25T19:32:53.941Z,8.75
2018-09-25T19:33:55.335Z,8.75
2018-09-25T19:34:57.265Z,8.68
2018-09-25T19:35:59.193Z,8.65
2018-09-25T19:37:02.496Z,8.68
2018-09-25T19:38:04.528Z,8.63
2018-09-25T19:39:06.506Z,8.60
2018-09-25T19:40:09.311Z,8.60
2018-09-25T19:41:11.554Z,8.50
2018-09-25T19:42:13.540Z,8.54
2018-09-25T19:43:14.955Z,8.52
2018-09-25T19:44:16.459Z,8.49
2018-09-25T19:45:19.395Z,8.47
2018-09-25T19:46:19.877Z,8.42
2018-09-25T19:47:21.294Z,8.36
2018-09-25T19:48:23.335Z,8.40
2018-09-25T19:49:24.732Z,8.31
2018-09-25T19:50:26.142Z,8.34
2018-09-25T19:51:27.555Z,8.36
2018-09-25T19:52:28.946Z,8.22
2018-09-25T19:53:30.374Z,8.22
2018-09-25T19:54:31.774Z,8.24
2018-09-25T19:55:33.267Z,8.28
2018-09-25T19:56:35.526Z,8.10
2018-09-25T19:57:37.662Z,8.17
2018-09-25T19:58:39.168Z,8.13
2018-09-25T19:59:40.599Z,8.13
2018-09-25T20:00:41.939Z,8.10
2018-09-25T20:01:43.326Z,8.12
2018-09-25T20:02:44.700Z,8.04
2018-09-25T20:03:46.105Z,7.95
2018-09-25T20:04:50.120Z,8.07
2018-09-25T20:05:51.519Z,8.03
2018-09-25T20:06:52.915Z,8.03
2018-09-25T20:07:54.302Z,7.95
2018-09-25T20:08:55.687Z,7.99
2018-09-25T20:09:57.072Z,7.91
2018-09-25T20:10:58.454Z,7.95
2018-09-25T20:11:59.846Z,7.91
2018-09-25T20:13:01.924Z,7.84
2018-09-25T20:14:03.311Z,7.92
2018-09-25T20:15:04.678Z,7.92
2018-09-25T20:16:06.106Z,7.88
2018-09-25T20:17:07.496Z,7.79
2018-09-25T20:18:08.904Z,7.71
2018-09-25T20:19:10.309Z,7.70
2018-09-25T20:20:11.672Z,7.62
2018-09-25T20:21:13.054Z,7.66
2018-09-25T20:22:14.453Z,7.67
2018-09-25T20:23:15.846Z,7.60
2018-09-25T20:24:17.216Z,7.57
2018-09-25T20:25:18.605Z,7.57
2018-09-25T20:26:19.991Z,7.52
2018-09-25T20:27:21.373Z,7.52
2018-09-25T20:28:22.753Z,7.48
2018-09-25T20:29:24.209Z,7.33
2018-09-25T20:30:25.540Z,7.44
2018-09-25T20:31:26.931Z,7.33
2018-09-25T20:32:28.316Z,7.51
2018-09-25T20:33:29.713Z,7.32
2018-09-25T20:34:31.102Z,7.39
2018-09-25T20:35:32.476Z,7.36
2018-09-25T20:36:33.846Z,7.19
2018-09-25T20:37:35.337Z,7.30
2018-09-25T20:38:36.615Z,7.29
2018-09-25T20:39:37.985Z,7.33
2018-09-25T20:40:39.364Z,7.15
2018-09-25T20:41:40.747Z,7.12
2018-09-25T20:42:42.124Z,7.18
2018-09-25T20:43:43.499Z,7.18
2018-09-25T20:44:44.873Z,7.15
2018-09-25T20:45:46.258Z,7.16
2018-09-25T20:46:47.622Z,7.18
2018-09-25T20:47:49.007Z,7.19
2018-09-25T20:48:50.397Z,7.16
2018-09-25T20:49:51.764Z,7.16
2018-09-25T20:50:53.150Z,7.23
2018-09-25T20:51:54.531Z,7.26
2018-09-25T20:52:55.900Z,7.19
2018-09-25T20:53:57.288Z,7.34
2018-09-25T20:54:58.666Z,7.19
2018-09-25T20:56:00.042Z,7.27
2018-09-25T20:57:01.422Z,7.26
2018-09-25T20:58:02.801Z,7.24
2018-09-25T20:59:04.183Z,7.23
2018-09-25T21:00:05.556Z,7.15
2018-09-25T21:01:06.931Z,7.15
2018-09-25T21:02:08.308Z,7.15
2018-09-25T21:03:09.688Z,7.08
2018-09-25T21:04:11.081Z,7.07
2018-09-25T21:05:12.451Z,6.97
2018-09-25T21:06:13.834Z,6.96
2018-09-25T21:07:15.213Z,6.94
2018-09-25T21:08:16.591Z,6.93
2018-09-25T21:09:17.990Z,6.94
2018-09-25T21:10:19.355Z,6.87
2018-09-25T21:11:20.745Z,6.83
2018-09-25T21:12:22.113Z,6.81
2018-09-25T21:13:23.491Z,6.89
2018-09-25T21:14:24.873Z,6.82
2018-09-25T21:15:26.291Z,6.83
2018-09-25T21:16:27.642Z,6.82
2018-09-25T21:17:29.026Z,6.76
2018-09-25T21:18:30.410Z,6.79
2018-09-25T21:19:31.797Z,6.79
2018-09-25T21:20:33.181Z,6.81
2018-09-25T21:21:34.580Z,6.81
2018-09-25T21:22:35.942Z,6.90
2018-09-25T21:23:37.333Z,6.79
2018-09-25T21:24:38.727Z,6.86
2018-09-25T21:25:40.084Z,6.87
2018-09-25T21:26:41.503Z,6.81
2018-09-25T21:27:42.853Z,6.79
2018-09-25T21:28:44.330Z,6.81
2018-09-25T21:29:45.569Z,6.63
2018-09-25T21:30:46.934Z,6.64
2018-09-25T21:31:48.317Z,6.68
2018-09-25T21:32:50.323Z,6.68
2018-09-25T21:33:51.701Z,6.73
2018-09-25T21:34:53.081Z,6.69
2018-09-25T21:35:55.354Z,6.65
2018-09-25T21:36:56.736Z,6.69
2018-09-25T21:37:58.109Z,6.65
2018-09-25T21:38:59.518Z,6.68
2018-09-25T21:40:00.931Z,6.72
2018-09-25T21:41:02.286Z,6.73
2018-09-25T21:42:03.667Z,6.58
2018-09-25T21:43:05.048Z,6.54
2018-09-25T21:44:06.419Z,6.60
2018-09-25T21:45:07.872Z,6.60
2018-09-25T21:46:09.131Z,6.57
2018-09-25T21:47:10.516Z,6.53
2018-09-25T21:48:11.890Z,6.45
2018-09-25T21:49:13.284Z,6.45
2018-09-25T21:50:14.664Z,6.48
2018-09-25T21:51:16.163Z,6.43
2018-09-25T21:52:17.428Z,6.39
2018-09-25T21:53:18.814Z,6.45
2018-09-25T21:54:20.190Z,6.48
2018-09-25T21:55:21.576Z,6.36
2018-09-25T21:56:22.946Z,6.38
2018-09-25T21:57:24.460Z,6.32
2018-09-25T21:58:25.701Z,6.42
2018-09-25T21:59:27.079Z,6.38
2018-09-25T22:00:28.454Z,6.38
2018-09-25T22:01:29.835Z,6.46
2018-09-25T22:02:31.209Z,6.38
2018-09-25T22:03:32.581Z,6.42
2018-09-25T22:04:33.961Z,6.43
2018-09-25T22:05:35.331Z,6.46
2018-09-25T22:06:36.724Z,6.45
2018-09-25T22:07:38.093Z,6.43
2018-09-25T22:08:39.474Z,6.46
2018-09-25T22:09:40.849Z,6.42
2018-09-25T22:10:42.229Z,6.45
2018-09-25T22:11:43.666Z,6.51
2018-09-25T22:12:44.981Z,6.53
2018-09-25T22:13:46.364Z,6.46
2018-09-25T22:14:47.744Z,6.48
2018-09-25T22:15:49.130Z,6.45
2018-09-25T22:16:50.505Z,6.45
2018-09-25T22:17:51.895Z,6.40
2018-09-25T22:18:53.266Z,6.40
2018-09-25T22:19:54.646Z,6.46
2018-09-25T22:20:56.028Z,6.42
2018-09-25T22:21:57.411Z,6.45
2018-09-25T22:22:59.613Z,6.42
2018-09-25T22:24:00.985Z,6.43
2018-09-25T22:25:02.362Z,6.40
2018-09-25T22:26:03.746Z,6.39
2018-09-25T22:27:05.119Z,6.40
2018-09-25T22:28:06.493Z,6.42
2018-09-25T22:29:07.873Z,6.40
2018-09-25T22:30:09.243Z,6.38
2018-09-25T22:31:10.611Z,6.40
2018-09-25T22:32:11.995Z,6.38
2018-09-25T22:33:13.365Z,6.42
2018-09-25T22:34:14.740Z,6.42
2018-09-25T22:35:16.123Z,6.39
2018-09-25T22:36:17.496Z,6.38
2018-09-25T22:37:18.869Z,6.36
2018-09-25T22:38:20.240Z,6.42
2018-09-25T22:39:22.558Z,6.42
2018-09-25T22:40:23.939Z,6.43
2018-09-25T22:41:25.323Z,6.46
2018-09-25T22:42:26.704Z,6.46
2018-09-25T22:43:28.072Z,6.35
2018-09-25T22:44:29.446Z,6.45
2018-09-25T22:45:30.838Z,6.40
2018-09-25T22:46:32.214Z,6.38
2018-09-25T22:47:33.590Z,6.33
2018-09-25T22:48:34.972Z,6.38
2018-09-25T22:49:36.348Z,6.35
2018-09-25T22:50:37.728Z,6.30
2018-09-25T22:51:39.107Z,6.35
2018-09-25T22:52:40.490Z,6.39
2018-09-25T22:53:41.870Z,6.39
2018-09-25T22:54:43.246Z,6.40
2018-09-25T22:55:44.627Z,6.40
2018-09-25T22:56:46.017Z,6.39
2018-09-25T22:57:47.406Z,6.35
2018-09-25T22:58:48.773Z,6.45
2018-09-25T22:59:50.159Z,6.36
2018-09-25T23:00:51.535Z,6.40
2018-09-25T23:01:52.903Z,6.40
2018-09-25T23:02:54.279Z,6.33
2018-09-25T23:03:55.657Z,6.28
2018-09-25T23:04:57.028Z,6.32
2018-09-25T23:05:58.407Z,6.36
2018-09-25T23:06:59.783Z,6.38
2018-09-25T23:08:01.159Z,6.40
2018-09-25T23:09:02.546Z,6.38
2018-09-25T23:10:03.920Z,6.48
2018-09-25T23:11:05.288Z,6.42
2018-09-25T23:12:06.665Z,6.36
2018-09-25T23:13:08.036Z,6.40
2018-09-25T23:14:09.414Z,6.39
2018-09-25T23:15:10.787Z,6.38
2018-09-25T23:16:12.164Z,6.51
2018-09-25T23:17:13.545Z,6.38
2018-09-25T23:18:14.916Z,6.48
2018-09-25T23:19:16.288Z,6.38
2018-09-25T23:20:17.662Z,6.38
2018-09-25T23:21:19.049Z,6.35
2018-09-25T23:22:20.418Z,6.32
2018-09-25T23:23:22.478Z,6.28
2018-09-25T23:24:23.851Z,6.33
2018-09-25T23:25:25.220Z,6.25
2018-09-25T23:26:26.597Z,6.30
2018-09-25T23:27:27.977Z,6.19
2018-09-25T23:28:29.351Z,6.10
2018-09-25T23:29:30.732Z,6.17
2018-09-25T23:30:32.108Z,6.17
2018-09-25T23:31:33.479Z,6.14
2018-09-25T23:32:34.860Z,6.14
2018-09-25T23:33:36.246Z,6.03
2018-09-25T23:34:37.625Z,6.03
2018-09-25T23:35:38.989Z,6.01
2018-09-25T23:36:40.410Z,5.95
2018-09-25T23:37:41.744Z,5.95
2018-09-25T23:38:43.119Z,5.90
2018-09-25T23:39:44.500Z,5.84
2018-09-25T23:40:45.872Z,5.92
2018-09-25T23:41:47.242Z,5.87
2018-09-25T23:42:48.628Z,5.85
2018-09-25T23:43:49.998Z,5.85
2018-09-25T23:44:51.376Z,5.81
2018-09-25T23:45:52.748Z,5.81
2018-09-25T23:46:54.129Z,5.83
2018-09-25T23:47:55.501Z,5.78
2018-09-25T23:48:56.880Z,5.83
2018-09-25T23:49:58.258Z,5.80
2018-09-25T23:50:59.635Z,5.81
2018-09-25T23:52:01.014Z,5.78
2018-09-25T23:53:02.392Z,5.81
2018-09-25T23:54:03.770Z,5.73
2018-09-25T23:55:05.153Z,5.75
2018-09-25T23:56:06.527Z,5.77
2018-09-25T23:57:07.905Z,5.83
2018-09-25T23:58:09.279Z,5.73
2018-09-25T23:59:10.649Z,5.70
